createdAt,value
2018-07-03T00:00:13.973Z,20.80
2018-07-03T00:02:42.057Z,20.80
2018-07-03T00:05:10.167Z,20.70
2018-07-03T00:07:38.252Z,20.60
2018-07-03T00:10:08.106Z,20.60
2018-07-03T00:12:36.202Z,20.60
2018-07-03T00:15:05.097Z,20.60
2018-07-03T00:17:33.322Z,20.60
2018-07-03T00:20:01.414Z,20.60
2018-07-03T00:22:29.502Z,20.50
2018-07-03T00:24:57.706Z,20.50
2018-07-03T00:27:25.881Z,20.50
2018-07-03T00:29:53.995Z,20.50
2018-07-03T00:32:22.073Z,20.40
2018-07-03T00:34:50.382Z,20.40
2018-07-03T00:37:18.457Z,20.40
2018-07-03T00:39:46.662Z,20.30
2018-07-03T00:42:14.750Z,20.20
2018-07-03T00:44:42.839Z,20.20
2018-07-03T00:47:10.973Z,20.20
2018-07-03T00:49:39.062Z,20.10
2018-07-03T00:52:07.182Z,20.00
2018-07-03T00:54:35.281Z,20.00
2018-07-03T00:57:03.372Z,20.00
2018-07-03T00:59:31.478Z,19.90
2018-07-03T01:01:59.559Z,20.00
2018-07-03T01:06:55.527Z,19.90
2018-07-03T01:09:23.625Z,19.80
2018-07-03T01:11:51.713Z,19.80
2018-07-03T01:14:19.812Z,19.80
2018-07-03T01:16:47.897Z,19.80
2018-07-03T01:19:16.004Z,19.70
2018-07-03T01:21:44.102Z,19.70
2018-07-03T01:24:12.721Z,19.70
2018-07-03T01:26:40.817Z,19.70
2018-07-03T01:29:08.913Z,19.60
2018-07-03T01:31:37.010Z,19.60
2018-07-03T01:34:05.181Z,19.60
2018-07-03T01:36:33.405Z,19.60
2018-07-03T01:39:01.515Z,19.60
2018-07-03T01:41:29.630Z,19.60
2018-07-03T01:48:53.547Z,19.50
2018-07-03T01:51:21.659Z,19.40
2018-07-03T01:53:49.776Z,19.40
2018-07-03T01:56:17.886Z,19.40
2018-07-03T01:58:45.994Z,19.40
2018-07-03T02:01:14.106Z,19.30
2018-07-03T02:03:42.214Z,19.30
2018-07-03T02:06:10.331Z,19.30
2018-07-03T02:08:38.431Z,19.30
2018-07-03T02:11:06.582Z,19.20
2018-07-03T02:13:34.689Z,19.30
2018-07-03T02:16:04.351Z,19.20
2018-07-03T02:18:32.466Z,19.20
2018-07-03T02:21:00.596Z,19.10
2018-07-03T02:23:29.135Z,19.10
2018-07-03T02:25:57.242Z,19.10
2018-07-03T02:28:25.406Z,19.10
2018-07-03T02:30:53.590Z,19.00
2018-07-03T02:33:21.691Z,19.00
2018-07-03T02:35:49.836Z,19.00
2018-07-03T02:38:17.927Z,19.00
2018-07-03T02:40:46.035Z,19.00
2018-07-03T02:43:14.130Z,19.00
2018-07-03T02:45:42.242Z,19.00
2018-07-03T02:48:10.347Z,18.90
2018-07-03T02:50:38.687Z,18.90
2018-07-03T02:53:06.792Z,18.90
2018-07-03T02:55:34.930Z,18.90
2018-07-03T02:58:03.026Z,18.80
2018-07-03T03:00:31.150Z,18.80
2018-07-03T03:02:59.251Z,18.80
2018-07-03T03:05:27.362Z,18.80
2018-07-03T03:07:55.471Z,18.70
2018-07-03T03:10:23.573Z,18.70
2018-07-03T03:12:51.689Z,18.60
2018-07-03T03:15:19.863Z,18.60
2018-07-03T03:17:47.965Z,18.60
2018-07-03T03:20:16.079Z,18.60
2018-07-03T03:22:44.196Z,18.60
2018-07-03T03:25:12.286Z,18.60
2018-07-03T03:27:40.471Z,18.50
2018-07-03T03:30:08.575Z,18.50
2018-07-03T03:32:36.686Z,18.50
2018-07-03T03:35:04.843Z,18.50
2018-07-03T03:37:32.963Z,18.50
2018-07-03T03:40:01.065Z,18.50
2018-07-03T03:42:29.322Z,18.50
2018-07-03T03:44:57.428Z,18.50
2018-07-03T03:47:25.530Z,18.50
2018-07-03T03:49:53.637Z,18.50
2018-07-03T03:52:21.754Z,18.50
2018-07-03T03:54:49.854Z,18.50
2018-07-03T03:57:17.974Z,18.50
2018-07-03T03:59:46.083Z,18.50
2018-07-03T04:02:14.324Z,18.50
2018-07-03T04:04:42.391Z,18.40
2018-07-03T04:07:10.519Z,18.40
2018-07-03T04:09:38.611Z,18.30
2018-07-03T04:12:06.723Z,18.30
2018-07-03T04:14:34.851Z,18.20
2018-07-03T04:17:02.967Z,18.20
2018-07-03T04:19:31.103Z,18.20
2018-07-03T04:21:59.262Z,18.20
2018-07-03T04:24:27.438Z,18.30
2018-07-03T04:26:55.543Z,18.30
2018-07-03T04:29:23.638Z,18.30
2018-07-03T04:31:51.750Z,18.30
2018-07-03T04:34:19.968Z,18.30
2018-07-03T04:36:48.224Z,18.30
2018-07-03T04:39:16.322Z,18.30
2018-07-03T04:41:44.472Z,18.30
2018-07-03T04:44:12.627Z,18.40
2018-07-03T04:46:40.811Z,18.40
2018-07-03T04:49:08.965Z,18.40
2018-07-03T04:51:37.083Z,18.40
2018-07-03T04:54:05.195Z,18.40
2018-07-03T04:56:33.308Z,18.50
2018-07-03T04:59:01.465Z,18.50
2018-07-03T05:01:29.675Z,18.50
2018-07-03T05:03:57.774Z,18.50
2018-07-03T05:06:27.042Z,18.60
2018-07-03T05:08:55.182Z,18.60
2018-07-03T05:11:23.318Z,18.70
2018-07-03T05:13:51.538Z,18.70
2018-07-03T05:16:19.659Z,18.80
2018-07-03T05:18:47.877Z,18.90
2018-07-03T05:21:15.974Z,18.90
2018-07-03T05:23:44.351Z,18.90
2018-07-03T05:26:12.446Z,19.00
2018-07-03T05:28:40.558Z,19.10
2018-07-03T05:31:08.667Z,19.10
2018-07-03T05:33:36.765Z,19.20
2018-07-03T05:36:05.020Z,19.20
2018-07-03T05:38:33.187Z,19.30
2018-07-03T05:41:01.284Z,19.30
2018-07-03T05:43:29.395Z,19.40
2018-07-03T05:45:57.502Z,19.40
2018-07-03T05:48:25.602Z,19.50
2018-07-03T05:50:53.699Z,19.50
2018-07-03T05:53:21.909Z,19.60
2018-07-03T05:55:50.011Z,19.60
2018-07-03T05:58:18.156Z,19.70
2018-07-03T06:00:46.329Z,19.70
2018-07-03T06:03:14.506Z,19.80
2018-07-03T06:05:42.606Z,19.80
2018-07-03T06:08:10.723Z,19.90
2018-07-03T06:10:38.834Z,19.90
2018-07-03T06:13:06.946Z,20.00
2018-07-03T06:15:35.075Z,20.10
2018-07-03T06:18:03.194Z,20.10
2018-07-03T06:20:31.307Z,20.20
2018-07-03T06:22:59.561Z,20.20
2018-07-03T06:25:27.755Z,20.30
2018-07-03T06:27:55.870Z,20.40
2018-07-03T06:30:23.961Z,20.40
2018-07-03T06:32:52.088Z,20.50
2018-07-03T06:35:20.195Z,20.60
2018-07-03T06:37:48.307Z,20.60
2018-07-03T06:40:16.486Z,20.70
2018-07-03T06:42:44.686Z,20.80
2018-07-03T06:45:12.960Z,20.80
2018-07-03T06:47:41.015Z,20.90
2018-07-03T06:50:09.194Z,21.00
2018-07-03T06:52:37.294Z,21.00
2018-07-03T06:55:05.564Z,21.10
2018-07-03T06:57:33.701Z,21.20
2018-07-03T07:00:01.815Z,21.30
2018-07-03T07:02:29.913Z,21.40
2018-07-03T07:07:26.011Z,21.60
2018-07-03T07:09:54.186Z,21.70
2018-07-03T07:12:22.303Z,21.90
2018-07-03T07:14:50.433Z,22.00
2018-07-03T07:17:18.551Z,22.20
2018-07-03T07:19:46.658Z,22.40
2018-07-03T07:22:14.760Z,22.50
2018-07-03T07:24:42.869Z,22.60
2018-07-03T07:27:11.060Z,22.60
2018-07-03T07:29:39.171Z,22.70
2018-07-03T07:32:07.357Z,22.80
2018-07-03T07:34:35.550Z,22.80
2018-07-03T07:37:03.652Z,22.90
2018-07-03T07:39:31.854Z,22.90
2018-07-03T07:42:00.036Z,22.90
2018-07-03T07:44:28.207Z,22.90
2018-07-03T07:46:56.311Z,22.90
2018-07-03T07:49:24.422Z,23.00
2018-07-03T07:51:52.531Z,23.00
2018-07-03T07:54:20.699Z,23.00
2018-07-03T07:56:48.794Z,23.10
2018-07-03T07:59:16.911Z,23.20
2018-07-03T08:01:45.022Z,23.30
2018-07-03T08:04:13.130Z,23.40
2018-07-03T08:09:09.958Z,23.40
2018-07-03T08:11:38.054Z,23.50
2018-07-03T08:14:06.302Z,23.50
2018-07-03T08:16:34.402Z,23.60
2018-07-03T08:19:02.548Z,23.70
2018-07-03T08:21:30.638Z,23.80
2018-07-03T08:23:58.734Z,23.80
2018-07-03T08:26:26.851Z,23.90
2018-07-03T08:28:54.946Z,24.00
2018-07-03T08:31:23.051Z,24.10
2018-07-03T08:33:51.150Z,24.20
2018-07-03T08:36:19.262Z,24.30
2018-07-03T08:38:47.371Z,24.30
2018-07-03T08:41:15.482Z,24.40
2018-07-03T08:43:43.598Z,24.50
2018-07-03T08:46:11.723Z,24.60
2018-07-03T08:48:39.821Z,24.70
2018-07-03T08:51:07.943Z,24.80
2018-07-03T08:53:36.159Z,24.90
2018-07-03T08:56:04.261Z,25.00
2018-07-03T08:58:32.361Z,25.10
2018-07-03T09:01:00.489Z,25.30
2018-07-03T09:03:28.587Z,25.40
2018-07-03T09:05:56.708Z,25.60
2018-07-03T09:08:24.815Z,25.70
2018-07-03T09:10:52.999Z,25.70
2018-07-03T09:13:21.113Z,25.90
2018-07-03T09:15:49.223Z,26.00
2018-07-03T09:18:17.329Z,26.10
2018-07-03T09:20:45.451Z,26.20
2018-07-03T09:23:13.571Z,26.30
2018-07-03T09:25:41.687Z,26.40
2018-07-03T09:28:09.786Z,26.50
2018-07-03T09:30:37.927Z,26.60
2018-07-03T09:33:06.004Z,26.60
2018-07-03T09:35:34.113Z,26.60
2018-07-03T09:38:02.225Z,26.70
2018-07-03T09:40:30.342Z,26.80
2018-07-03T09:42:58.443Z,26.90
2018-07-03T09:45:26.558Z,26.90
2018-07-03T09:47:54.650Z,27.00
2018-07-03T09:50:22.759Z,27.10
2018-07-03T09:55:19.654Z,27.20
2018-07-03T09:57:47.884Z,27.30
2018-07-03T10:00:19.966Z,27.40
2018-07-03T10:02:48.067Z,27.40
2018-07-03T10:05:16.158Z,27.50
2018-07-03T10:07:44.283Z,27.60
2018-07-03T10:10:12.388Z,27.60
2018-07-03T10:12:40.498Z,27.70
2018-07-03T10:15:08.607Z,27.70
2018-07-03T10:17:36.726Z,27.70
2018-07-03T10:20:04.922Z,27.70
2018-07-03T10:22:33.042Z,27.60
2018-07-03T10:25:01.150Z,27.60
2018-07-03T10:27:29.326Z,27.60
2018-07-03T10:29:57.426Z,27.70
2018-07-03T10:32:25.534Z,27.70
2018-07-03T10:34:53.643Z,27.70
2018-07-03T10:37:21.822Z,27.70
2018-07-03T10:39:49.922Z,27.80
2018-07-03T10:42:18.036Z,27.90
2018-07-03T10:44:46.170Z,28.00
2018-07-03T10:47:14.285Z,28.00
2018-07-03T10:49:42.387Z,28.10
2018-07-03T10:52:10.495Z,28.10
2018-07-03T10:54:38.592Z,28.10
2018-07-03T10:57:06.702Z,28.20
2018-07-03T10:59:34.852Z,28.30
2018-07-03T11:02:02.918Z,28.30
2018-07-03T11:04:31.014Z,28.40
2018-07-03T11:06:59.119Z,28.50
2018-07-03T11:09:27.218Z,28.50
2018-07-03T11:11:55.322Z,28.50
2018-07-03T11:14:23.431Z,28.40
2018-07-03T11:16:51.552Z,28.40
2018-07-03T11:19:19.656Z,28.50
2018-07-03T11:21:47.761Z,28.50
2018-07-03T11:24:15.870Z,28.50
2018-07-03T11:26:44.067Z,28.40
2018-07-03T11:29:12.157Z,28.40
2018-07-03T11:31:40.295Z,28.50
2018-07-03T11:34:08.634Z,28.50
2018-07-03T11:39:06.742Z,28.50
2018-07-03T11:41:34.872Z,28.50
2018-07-03T11:44:03.090Z,28.60
2018-07-03T11:46:31.242Z,28.60
2018-07-03T11:48:59.302Z,28.70
2018-07-03T11:51:27.524Z,28.70
2018-07-03T11:53:55.623Z,28.70
2018-07-03T11:56:24.014Z,28.80
2018-07-03T11:58:52.255Z,28.80
2018-07-03T12:01:20.372Z,28.80
2018-07-03T12:03:48.457Z,28.80
2018-07-03T12:08:45.067Z,28.80
2018-07-03T12:11:13.181Z,28.80
2018-07-03T12:13:41.278Z,28.80
2018-07-03T12:16:09.382Z,28.80
2018-07-03T12:18:43.066Z,28.70
2018-07-03T12:21:11.170Z,28.70
2018-07-03T12:23:39.324Z,28.60
2018-07-03T12:26:07.426Z,28.50
2018-07-03T12:28:35.545Z,28.50
2018-07-03T12:31:03.649Z,28.50
2018-07-03T12:33:31.762Z,28.40
2018-07-03T12:35:59.861Z,28.40
2018-07-03T12:38:28.870Z,28.30
2018-07-03T12:40:56.958Z,28.20
2018-07-03T12:43:25.254Z,28.10
2018-07-03T12:45:53.350Z,28.10
2018-07-03T12:48:21.470Z,28.00
2018-07-03T12:50:49.651Z,28.00
2018-07-03T12:53:17.766Z,27.90
2018-07-03T12:58:13.813Z,27.80
2018-07-03T13:00:41.907Z,27.80
2018-07-03T13:03:10.022Z,27.70
2018-07-03T13:05:38.119Z,27.70
2018-07-03T13:08:06.348Z,27.70
2018-07-03T13:10:34.372Z,27.60
2018-07-03T13:15:30.595Z,27.60
2018-07-03T13:18:01.232Z,27.60
2018-07-03T13:22:57.203Z,27.60
2018-07-03T13:25:25.315Z,27.60
2018-07-03T13:27:53.414Z,27.50
2018-07-03T13:30:21.531Z,27.50
2018-07-03T13:32:49.635Z,27.60
2018-07-03T13:35:17.741Z,27.60
2018-07-03T13:37:45.834Z,27.50
2018-07-03T13:40:13.955Z,27.50
2018-07-03T13:42:42.053Z,27.50
2018-07-03T13:45:10.394Z,27.60
2018-07-03T13:47:38.503Z,27.60
2018-07-03T13:50:06.614Z,27.60
2018-07-03T13:52:34.706Z,27.70
2018-07-03T13:55:02.818Z,27.70
2018-07-03T13:57:30.915Z,27.70
2018-07-03T13:59:59.027Z,27.70
2018-07-03T14:02:27.131Z,27.80
2018-07-03T14:04:55.306Z,27.80
2018-07-03T14:07:23.417Z,27.80
2018-07-03T14:09:51.522Z,27.90
2018-07-03T14:12:19.758Z,28.00
2018-07-03T14:17:15.774Z,28.00
2018-07-03T14:19:43.930Z,28.00
2018-07-03T14:22:12.087Z,28.00
2018-07-03T14:24:40.193Z,28.00
2018-07-03T14:27:08.289Z,28.00
2018-07-03T14:29:36.415Z,27.90
2018-07-03T14:32:04.658Z,28.00
2018-07-03T14:34:32.771Z,27.90
2018-07-03T14:37:01.373Z,27.90
2018-07-03T14:39:29.483Z,27.90
2018-07-03T14:41:57.591Z,27.90
2018-07-03T14:44:25.707Z,27.80
2018-07-03T14:46:53.803Z,27.80
2018-07-03T14:49:22.026Z,27.80
2018-07-03T14:51:50.122Z,27.80
2018-07-03T14:54:18.266Z,27.80
2018-07-03T14:56:46.622Z,27.80
2018-07-03T14:59:14.758Z,27.80
2018-07-03T15:01:42.888Z,27.90
2018-07-03T15:04:10.994Z,27.90
2018-07-03T15:11:36.478Z,28.10
2018-07-03T15:14:04.588Z,28.10
2018-07-03T15:16:32.688Z,28.10
2018-07-03T15:19:06.202Z,28.10
2018-07-03T15:21:34.314Z,28.00
2018-07-03T15:24:02.710Z,27.90
2018-07-03T15:26:30.832Z,27.90
2018-07-03T15:28:58.934Z,27.90
2018-07-03T15:31:27.047Z,27.90
2018-07-03T15:33:55.151Z,27.90
2018-07-03T15:36:23.263Z,27.90
2018-07-03T15:38:51.364Z,28.00
2018-07-03T15:43:58.874Z,27.90
2018-07-03T15:46:26.982Z,27.80
2018-07-03T15:48:55.399Z,27.80
2018-07-03T15:51:23.502Z,27.80
2018-07-03T15:56:19.601Z,27.80
2018-07-03T15:58:47.655Z,27.70
2018-07-03T16:01:15.762Z,27.70
2018-07-03T16:04:00.916Z,27.70
2018-07-03T16:06:52.509Z,27.70
2018-07-03T16:09:20.643Z,27.70
2018-07-03T16:11:48.713Z,27.70
2018-07-03T16:14:16.826Z,27.70
2018-07-03T16:16:45.161Z,27.70
2018-07-03T16:19:18.798Z,27.70
2018-07-03T16:21:46.901Z,27.60
2018-07-03T16:24:14.997Z,27.60
2018-07-03T16:26:43.111Z,27.50
2018-07-03T16:29:12.267Z,27.50
2018-07-03T16:31:40.545Z,27.50
2018-07-03T16:34:08.642Z,27.40
2018-07-03T16:36:36.799Z,27.40
2018-07-03T16:39:08.086Z,27.40
2018-07-03T16:41:36.432Z,27.40
2018-07-03T16:44:04.528Z,27.40
2018-07-03T16:46:32.626Z,27.30
2018-07-03T16:49:00.831Z,27.30
2018-07-03T16:51:28.931Z,27.30
2018-07-03T16:56:24.982Z,27.30
2018-07-03T16:58:53.078Z,27.20
2018-07-03T17:01:21.186Z,27.20
2018-07-03T17:03:49.294Z,27.20
2018-07-03T17:06:17.412Z,27.20
2018-07-03T17:08:45.510Z,27.20
2018-07-03T17:11:13.609Z,27.20
2018-07-03T17:13:41.777Z,27.10
2018-07-03T17:16:09.821Z,27.10
2018-07-03T17:18:42.163Z,27.00
2018-07-03T17:21:10.279Z,27.00
2018-07-03T17:23:38.387Z,27.00
2018-07-03T17:26:06.493Z,26.90
2018-07-03T17:28:34.690Z,26.90
2018-07-03T17:31:02.706Z,26.90
2018-07-03T17:33:30.825Z,26.90
2018-07-03T17:35:58.939Z,26.80
2018-07-03T17:38:27.026Z,26.80
2018-07-03T17:41:06.597Z,26.80
2018-07-03T17:44:18.107Z,26.80
2018-07-03T17:46:46.219Z,26.80
2018-07-03T17:49:14.851Z,26.80
2018-07-03T17:51:42.955Z,26.70
2018-07-03T17:54:11.079Z,26.70
2018-07-03T17:56:39.347Z,26.70
2018-07-03T17:59:07.460Z,26.70
2018-07-03T18:01:35.563Z,26.70
2018-07-03T18:06:31.602Z,26.70
2018-07-03T18:08:59.697Z,26.70
2018-07-03T18:11:27.840Z,26.60
2018-07-03T18:13:56.031Z,26.60
2018-07-03T18:16:24.147Z,26.60
2018-07-03T18:18:57.753Z,26.60
2018-07-03T18:21:25.862Z,26.60
2018-07-03T18:23:53.963Z,26.50
2018-07-03T18:26:22.066Z,26.50
2018-07-03T18:28:50.243Z,26.50
2018-07-03T18:31:18.358Z,26.50
2018-07-03T18:33:46.485Z,26.40
2018-07-03T18:36:14.671Z,26.40
2018-07-03T18:38:42.922Z,26.40
2018-07-03T18:41:11.156Z,26.40
2018-07-03T18:43:39.297Z,26.30
2018-07-03T18:46:08.310Z,26.30
2018-07-03T18:48:36.565Z,26.30
2018-07-03T18:51:04.732Z,26.20
2018-07-03T18:53:32.918Z,26.20
2018-07-03T18:56:01.022Z,26.20
2018-07-03T18:58:29.262Z,26.10
2018-07-03T19:00:57.362Z,26.10
2018-07-03T19:03:25.566Z,26.00
2018-07-03T19:05:53.737Z,26.00
2018-07-03T19:08:22.263Z,26.00
2018-07-03T19:10:50.359Z,25.90
2018-07-03T19:13:18.476Z,25.90
2018-07-03T19:15:46.714Z,25.80
2018-07-03T19:18:14.867Z,25.80
2018-07-03T19:20:43.007Z,25.70
2018-07-03T19:23:11.113Z,25.70
2018-07-03T19:25:39.283Z,25.70
2018-07-03T19:28:07.770Z,25.60
2018-07-03T19:30:35.896Z,25.60
2018-07-03T19:33:04.006Z,25.50
2018-07-03T19:35:32.170Z,25.50
2018-07-03T19:38:00.464Z,25.40
2018-07-03T19:40:28.651Z,25.40
2018-07-03T19:43:28.990Z,25.30
2018-07-03T19:48:25.860Z,25.10
2018-07-03T19:50:54.249Z,25.10
2018-07-03T19:53:22.443Z,25.00
2018-07-03T19:55:51.804Z,25.00
2018-07-03T19:58:20.389Z,24.90
2018-07-03T20:00:49.565Z,24.80
2018-07-03T20:03:17.784Z,24.70
2018-07-03T20:05:45.911Z,24.70
2018-07-03T20:08:14.014Z,24.60
2018-07-03T20:13:11.987Z,24.50
2018-07-03T20:15:40.111Z,24.50
2018-07-03T20:18:09.343Z,24.40
2018-07-03T20:20:37.547Z,24.30
2018-07-03T20:23:05.797Z,24.30
2018-07-03T20:25:34.475Z,24.20
2018-07-03T20:28:02.758Z,24.20
2018-07-03T20:30:30.861Z,24.10
2018-07-03T20:32:59.022Z,24.10
2018-07-03T20:35:27.551Z,24.00
2018-07-03T20:37:59.761Z,24.00
2018-07-03T20:40:31.974Z,24.00
2018-07-03T20:43:00.202Z,23.90
2018-07-03T20:45:28.303Z,23.90
2018-07-03T20:47:56.414Z,23.90
2018-07-03T20:50:24.510Z,23.90
2018-07-03T20:52:52.666Z,23.90
2018-07-03T20:55:20.800Z,23.90
2018-07-03T20:57:48.917Z,23.90
2018-07-03T21:00:17.018Z,23.90
2018-07-03T21:02:45.131Z,23.90
2018-07-03T21:05:13.251Z,23.90
2018-07-03T21:07:41.401Z,23.80
2018-07-03T21:10:09.599Z,23.80
2018-07-03T21:12:37.695Z,23.80
2018-07-03T21:15:05.894Z,23.80
2018-07-03T21:17:33.987Z,23.70
2018-07-03T21:20:02.123Z,23.70
2018-07-03T21:22:30.230Z,23.60
2018-07-03T21:24:58.349Z,23.60
2018-07-03T21:27:26.443Z,23.50
2018-07-03T21:29:54.548Z,23.50
2018-07-03T21:32:22.647Z,23.50
2018-07-03T21:34:50.745Z,23.40
2018-07-03T21:39:46.958Z,23.40
2018-07-03T21:42:15.062Z,23.40
2018-07-03T21:44:43.166Z,23.30
2018-07-03T21:47:11.270Z,23.30
2018-07-03T21:49:39.369Z,23.20
2018-07-03T21:52:07.522Z,23.20
2018-07-03T21:54:35.635Z,23.20
2018-07-03T21:59:31.715Z,23.10
2018-07-03T22:01:59.809Z,23.00
2018-07-03T22:04:27.967Z,23.00
2018-07-03T22:06:56.382Z,23.00
2018-07-03T22:09:24.498Z,22.90
2018-07-03T22:11:52.663Z,22.90
2018-07-03T22:14:20.782Z,22.80
2018-07-03T22:16:48.980Z,22.80
2018-07-03T22:19:17.138Z,22.80
2018-07-03T22:21:45.313Z,22.80
2018-07-03T22:24:13.700Z,22.80
2018-07-03T22:26:41.798Z,22.80
2018-07-03T22:31:37.906Z,22.70
2018-07-03T22:34:06.036Z,22.70
2018-07-03T22:36:34.135Z,22.70
2018-07-03T22:39:02.327Z,22.70
2018-07-03T22:41:30.431Z,22.60
2018-07-03T22:46:26.534Z,22.60
2018-07-03T22:48:54.698Z,22.50
2018-07-03T22:51:22.891Z,22.50
2018-07-03T22:53:50.991Z,22.50
2018-07-03T22:56:19.135Z,22.40
2018-07-03T22:58:47.231Z,22.40
2018-07-03T23:01:15.342Z,22.40
2018-07-03T23:03:43.533Z,22.30
2018-07-03T23:06:11.635Z,22.40
2018-07-03T23:08:39.774Z,22.30
2018-07-03T23:11:07.923Z,22.30
2018-07-03T23:13:36.031Z,22.30
2018-07-03T23:16:04.137Z,22.30
2018-07-03T23:18:32.274Z,22.20
2018-07-03T23:21:00.675Z,22.30
2018-07-03T23:23:28.770Z,22.30
2018-07-03T23:25:56.918Z,22.20
2018-07-03T23:28:25.014Z,22.20
2018-07-03T23:30:53.121Z,22.20
2018-07-03T23:33:21.234Z,22.20
2018-07-03T23:35:49.342Z,22.20
2018-07-03T23:38:17.463Z,22.10
2018-07-03T23:40:45.678Z,22.20
2018-07-03T23:43:13.855Z,22.10
2018-07-03T23:46:00.158Z,22.10
2018-07-03T23:48:39.866Z,22.10
2018-07-03T23:51:20.234Z,22.10
2018-07-03T23:53:59.875Z,22.10
2018-07-03T23:56:40.072Z,22.00
2018-07-03T23:59:19.771Z,22.00
